Latest Weather Observations for Bankstown

IDN60901

Issued at 10:45 am EDT Saturday 25 October 2014 (issued every 10 minutes, with the page automatically refreshed every 10 minutes)

About weather observations | Map of Sydney area stations | Latest observations for Sydney area | Other Formats
Station Details ID: 066137 Name: BANKSTOWN AIRPORT AWS Lat: -33.92 Lon: 150.99 Height: 6.5 m
Data from the previous 72 hours. | See also: Recent months at Bankstown
Date/Time
EDT
Tmp

°C
App
Tmp
°C
Dew
Point
°C
Rel
Hum
%
Delta-T

°C
Wind Press
QNH
hPa
Press
MSL
hPa
Rain
since
9 am
mm
Dir
 
Spd
km/h
Gust
km/h
Spd
kts
Gust
kts
25/10:30am 27.2 28.3 13.5 42 8.1 WNW 0 11 0 6 1015.0 1015.0 0.0
25/10:00am 25.8 26.4 14.3 49 6.8 S 4 9 2 5 1015.1 1015.1 0.0
25/09:30am 23.9 25.7 17.4 67 4.0 WNW 4 9 2 5 1015.5 1015.5 0.0
25/09:00am 21.1 22.6 19.0 88 1.3 WNW 9 13 5 7 1015.5 1015.5 0.4
25/08:51am 20.0 21.1 18.8 93 0.8 WNW 11 15 6 8 1015.4 1015.4 0.4
25/08:37am 18.8 19.5 18.0 95 0.5 NW 11 13 6 7 1015.3 1015.3 0.4
25/08:30am 18.4 19.0 17.6 95 0.5 NW 11 13 6 7 1015.2 1015.2 0.4
25/08:00am 17.8 19.1 17.0 95 0.5 WNW 6 9 3 5 1015.3 1015.3 0.4
25/07:30am 17.6 18.7 16.6 94 0.6 WSW 6 7 3 4 1015.1 1015.1 0.4
25/07:00am 17.4 18.2 16.4 94 0.6 SW 7 9 4 5 1014.8 1014.8 0.4
25/06:30am 17.5 18.3 16.4 93 0.7 SW 7 11 4 6 1014.3 1014.3 0.4
25/06:00am 17.7 18.6 16.6 93 0.7 SW 7 11 4 6 1013.6 1013.6 0.4
25/05:39am 17.6 18.6 16.3 92 0.8 SW 6 9 3 5 1013.3 1013.3 0.4
25/05:35am 17.4 18.3 16.1 92 0.8 SW 6 7 3 4 1013.2 1013.2 0.4
25/05:30am 17.4 18.3 16.1 92 0.8 SW 6 7 3 4 1013.0 1013.0 0.4
25/05:00am 17.3 18.8 15.8 91 0.9 SW 2 9 1 5 1012.7 1012.7 0.4
25/04:48am 16.9 18.6 15.2 90 1.0 CALM 0 0 0 0 1012.6 1012.6 0.4
25/04:30am 17.9 20.0 16.2 90 1.0 CALM 0 6 0 3 1012.4 1012.4 0.4
25/04:00am 17.7 18.5 15.9 89 1.1 S 6 7 3 4 1012.5 1012.5 0.4
25/03:54am 17.6 18.3 15.6 88 1.2 S 6 7 3 4 1012.4 1012.4 0.4
25/03:30am 17.7 18.4 15.5 87 1.3 S 6 7 3 4 1012.4 1012.4 0.4
25/03:00am 18.6 20.4 16.4 87 1.3 S 2 9 1 5 1012.3 1012.3 0.4
25/02:30am 18.7 19.7 16.3 86 1.4 SSW 6 9 3 5 1012.2 1012.2 0.4
25/02:00am 18.8 19.1 15.9 83 1.7 S 9 13 5 7 1012.3 1012.3 0.4
25/01:30am 19.9 20.0 16.5 81 2.0 SSE 11 15 6 8 1012.3 1012.3 0.4
25/01:00am 20.6 20.7 16.6 78 2.4 SE 11 15 6 8 1012.3 1012.3 0.4
25/12:30am 20.7 20.7 16.3 76 2.6 SE 11 13 6 7 1012.4 1012.4 0.4
25/12:00am 20.5 21.6 16.7 79 2.3 SSE 6 9 3 5 1012.6 1012.6 0.4
 
Date/Time
EDT
Tmp

°C
App
Tmp
°C
Dew
Point
°C
Rel
Hum
%
Delta-T

°C
Wind Press
QNH
hPa
Press
MSL
hPa
Rain
since
9 am
mm
Dir
 
Spd
km/h
Gust
km/h
Spd
kts
Gust
kts
24/11:30pm 20.9 20.7 16.7 77 2.5 S 13 19 7 10 1012.7 1012.7 0.4
24/11:00pm 21.1 21.4 16.1 73 3.0 SSE 9 11 5 6 1012.1 1012.1 0.4
24/10:30pm 22.7 23.2 16.5 68 3.8 E 9 15 5 8 1011.9 1011.9 0.4
24/10:00pm 22.8 22.6 16.6 68 3.8 E 13 15 7 8 1012.7 1012.7 0.4
24/09:30pm 22.9 23.9 16.4 67 4.0 NNE 6 9 3 5 1013.5 1013.5 0.4
24/09:00pm 23.2 24.0 16.3 65 4.2 NNE 7 11 4 6 1013.2 1013.2 0.4
24/08:30pm 23.6 23.9 16.1 62 4.6 ENE 9 13 5 7 1012.5 1012.5 0.4
24/08:00pm 24.0 24.2 15.8 60 5.0 NE 9 15 5 8 1012.4 1012.4 0.4
24/07:30pm 24.6 24.3 15.5 57 5.5 ENE 11 19 6 10 1012.2 1012.2 0.4
24/07:00pm 25.0 25.0 15.3 55 5.8 ENE 9 19 5 10 1012.0 1012.0 0.4
24/06:30pm 25.6 25.0 15.6 54 6.1 ENE 13 19 7 10 1011.9 1011.9 0.4
24/06:00pm 26.0 25.0 15.7 53 6.3 E 15 24 8 13 1011.9 1011.9 0.4
24/05:30pm 26.0 24.4 16.0 54 6.1 E 19 26 10 14 1011.9 1011.9 0.4
24/05:00pm 26.5 24.9 16.4 53 6.2 E 20 28 11 15 1012.2 1012.2 0.4
24/04:30pm 26.6 24.5 16.2 52 6.4 ENE 22 32 12 17 1012.4 1012.4 0.4
24/04:00pm 27.9 25.8 16.2 49 7.2 E 22 30 12 16 1012.7 1012.7 0.4
24/03:30pm 28.4 26.2 16.0 47 7.7 ENE 22 33 12 18 1013.0 1013.0 0.4
24/03:00pm 29.0 27.0 15.5 44 8.3 NE 20 28 11 15 1013.6 1013.6 0.4
24/02:30pm 29.6 26.4 11.2 32 10.6 N 19 30 10 16 1014.2 1014.2 0.4
24/02:00pm 29.3 26.1 11.8 34 10.1 N 20 32 11 17 1014.8 1014.8 0.4
24/01:30pm 29.7 27.7 12.6 35 10.1 N 15 26 8 14 1015.7 1015.7 0.4
24/01:00pm 28.0 26.4 13.9 42 8.4 N 15 28 8 15 1016.2 1016.2 0.4
24/12:30pm 27.0 26.0 14.7 47 7.4 N 13 19 7 10 1016.8 1016.8 0.4
24/12:00pm 25.8 24.9 14.9 51 6.5 N 13 22 7 12 1017.6 1017.6 0.4
24/11:30am 24.1 23.7 15.3 58 5.3 N 11 19 6 10 1018.4 1018.4 0.4
24/11:00am 23.3 24.1 17.3 69 3.7 NNE 9 15 5 8 1019.2 1019.2 0.4
24/10:30am 21.4 22.4 16.4 73 3.0 S 6 9 3 5 1020.0 1020.0 0.4
24/10:00am 21.3 21.3 16.3 73 3.0 NW 11 15 6 8 1020.0 1020.0 0.0
24/09:30am 21.2 21.6 16.2 73 3.0 N 9 13 5 7 1020.0 1020.0 0.0
24/09:00am 21.0 20.5 16.8 77 2.5 NNW 15 20 8 11 1020.2 1020.2 0.0
24/08:30am 20.0 21.0 16.8 82 1.9 NW 7 11 4 6 1020.3 1020.3 0.0
24/08:21am 19.5 20.4 16.7 84 1.7 NNW 7 13 4 7 1020.2 1020.2 0.0
24/08:00am 18.7 18.8 16.5 87 1.3 WNW 11 13 6 7 1020.2 1020.2 0.0
24/07:41am 18.2 18.2 16.2 88 1.2 W 11 13 6 7 1020.3 1020.3 0.0
24/07:30am 17.9 17.8 16.1 89 1.1 WNW 11 15 6 8 1020.2 1020.2 0.0
24/07:00am 18.0 18.5 15.6 86 1.4 SE 7 13 4 7 1020.3 1020.3 0.0
24/06:30am 18.1 17.8 15.5 85 1.5 SE 11 17 6 9 1020.4 1020.4 0.0
24/06:00am 17.8 17.0 15.2 85 1.5 ESE 13 17 7 9 1019.7 1019.7 0.0
24/05:30am 18.0 18.3 15.1 83 1.7 E 7 13 4 7 1019.5 1019.5 0.0
24/05:00am 17.8 18.3 15.1 84 1.6 S 6 9 3 5 1019.8 1019.8 0.0
24/04:30am 18.0 15.9 15.1 83 1.7 SSW 20 24 11 13 1020.1 1020.1 0.0
24/04:00am 18.0 18.2 14.7 81 1.9 W 7 9 4 5 1020.0 1020.0 0.0
24/03:30am 18.3 16.1 15.9 86 1.4 WSW 22 30 12 16 1020.4 1020.4 0.0
24/03:20am 18.0 16.3 16.2 89 1.1 WSW 20 24 11 13 1020.3 1020.3 0.0
24/03:00am 17.3 17.7 14.8 85 1.4 W 6 7 3 4 1019.1 1019.1 0.0
24/02:30am 18.8 19.4 15.9 83 1.7 NE 7 13 4 7 1018.9 1018.9 0.0
24/02:00am 19.0 18.2 16.0 83 1.8 ESE 15 20 8 11 1019.6 1019.6 0.0
24/01:30am 18.9 18.2 16.3 85 1.6 SE 15 20 8 11 1020.7 1020.7 0.0
24/01:00am 18.7 18.3 16.3 86 1.4 SE 13 15 7 8 1020.8 1020.8 0.0
24/12:30am 18.8 18.5 16.4 86 1.4 SE 13 15 7 8 1020.5 1020.5 0.0
24/12:00am 17.9 18.3 15.3 85 1.5 SSE 7 9 4 5 1020.8 1020.8 0.0
 
Date/Time
EDT
Tmp

°C
App
Tmp
°C
Dew
Point
°C
Rel
Hum
%
Delta-T

°C
Wind Press
QNH
hPa
Press
MSL
hPa
Rain
since
9 am
mm
Dir
 
Spd
km/h
Gust
km/h
Spd
kts
Gust
kts
23/11:41pm 18.2 19.4 15.8 86 1.4 SSW 4 7 2 4 1020.5 1020.5 0.0
23/11:30pm 18.1 19.5 15.5 85 1.5 SW 2 6 1 3 1020.4 1020.4 0.0
23/11:25pm 18.1 19.2 15.5 85 1.5 SW 4 6 2 3 1020.5 1020.5 0.0
23/11:00pm 18.6 18.8 15.8 84 1.7 SSE 9 11 5 6 1020.6 1020.6 0.0
23/10:58pm 18.7 19.0 16.1 85 1.5 SSE 9 11 5 6 1020.5 1020.5 0.0
23/10:34pm 18.4 18.5 15.6 84 1.6 S 9 9 5 5 1020.6 1020.6 0.0
23/10:30pm 18.5 18.7 15.7 84 1.7 S 9 9 5 5 1020.6 1020.6 0.0
23/10:26pm 18.4 18.9 15.5 83 1.7 SSW 7 9 4 5 1020.6 1020.6 0.0
23/10:21pm 18.4 18.8 15.3 82 1.8 SW 7 9 4 5 1020.6 1020.6 0.0
23/10:00pm 18.8 19.3 15.5 81 1.9 SE 7 9 4 5 1020.3 1020.3 0.0
23/09:30pm 19.7 19.3 16.2 80 2.1 ESE 13 19 7 10 1019.9 1019.9 0.0
23/09:00pm 19.9 19.4 16.0 78 2.3 SE 13 20 7 11 1019.5 1019.5 0.0
23/08:30pm 20.3 19.2 15.3 73 3.0 ESE 15 19 8 10 1019.1 1019.1 0.0
23/08:00pm 20.5 19.6 14.8 70 3.3 SSE 13 15 7 8 1018.9 1018.9 0.0
23/07:30pm 20.5 20.2 14.4 68 3.6 SSW 9 15 5 8 1018.8 1018.8 0.0
23/07:00pm 21.9 19.7 14.8 64 4.2 ESE 20 24 11 13 1018.0 1018.0 0.0
23/06:30pm 22.4 20.0 13.7 58 5.0 SE 19 22 10 12 1017.8 1017.8 0.0
23/06:00pm 22.9 19.7 13.1 54 5.6 ESE 22 26 12 14 1017.5 1017.5 0.0
23/05:30pm 23.5 21.2 13.1 52 6.0 SE 17 19 9 10 1017.1 1017.1 0.0
23/05:00pm 24.5 21.0 13.4 50 6.5 ESE 24 30 13 16 1016.5 1016.5 0.0
23/04:30pm 25.0 21.1 13.2 48 6.9 ESE 26 30 14 16 1016.4 1016.4 0.0
23/04:00pm 26.7 22.4 12.0 40 8.4 ESE 26 33 14 18 1015.9 1015.9 0.0
23/03:30pm 27.4 23.7 11.4 37 9.1 ESE 22 30 12 16 1015.5 1015.5 0.0
23/03:00pm 28.9 24.3 11.0 33 10.2 ESE 26 35 14 19 1015.4 1015.4 0.0
23/02:30pm 29.1 24.9 11.2 33 10.3 E 24 33 13 18 1015.4 1015.4 0.0
23/02:00pm 30.3 26.5 11.3 31 11.0 ESE 22 30 12 16 1015.7 1015.7 0.0
23/01:30pm 31.2 28.8 13.9 35 10.5 SE 19 24 10 13 1016.1 1016.1 0.0
23/01:00pm 29.8 29.1 13.1 36 9.9 N 9 15 5 8 1016.2 1016.2 0.0
23/12:30pm 29.0 28.9 12.0 35 9.9 NW 4 9 2 5 1016.6 1016.6 0.0
23/12:00pm 27.9 27.7 13.1 40 8.7 W 6 11 3 6 1016.9 1016.9 0.0
23/11:30am 26.4 25.5 12.5 42 8.0 NW 9 15 5 8 1017.2 1017.2 0.0
23/11:00am 25.2 24.7 12.8 46 7.2 W 7 11 4 6 1017.5 1017.5 0.0
23/10:30am 23.6 23.7 12.6 50 6.3 WNW 4 9 2 5 1017.8 1017.8 0.0
23/10:00am 21.8 21.9 12.6 56 5.2 WNW 4 9 2 5 1018.2 1018.2 0.0
23/09:30am 20.5 19.7 13.0 62 4.3 NW 9 13 5 7 1018.1 1018.1 0.0
23/09:00am 19.3 18.9 13.0 67 3.6 NW 7 11 4 6 1018.2 1018.2 0.0
23/08:30am 17.7 17.1 12.4 71 2.9 WNW 7 9 4 5 1018.1 1018.1 0.0
23/08:00am 16.4 16.1 12.8 79 2.0 NNW 6 9 3 5 1018.4 1018.4 0.0
23/07:30am 15.0 14.8 12.9 87 1.2 NNW 6 9 3 5 1018.5 1018.5 0.0
23/07:00am 13.5 14.1 11.9 90 0.9 CALM 0 0 0 0 1018.3 1018.3 0.0
23/06:30am 12.5 12.7 10.7 89 0.9 CALM 0 0 0 0 1018.0 1018.0 0.0
23/06:00am 12.6 12.2 11.0 90 0.8 N 4 6 2 3 1017.6 1017.6 0.0
23/05:30am 12.5 12.8 10.9 90 0.8 CALM 0 0 0 0 1017.8 1017.8 0.0
23/05:00am 12.3 12.5 10.5 89 0.9 CALM 0 0 0 0 1017.6 1017.6 0.0
23/04:30am 12.6 12.9 10.8 89 0.9 CALM 0 0 0 0 1017.8 1017.8 0.0
23/04:00am 12.8 13.1 11.0 89 0.9 CALM 0 0 0 0 1017.7 1017.7 0.0
23/03:30am 13.0 13.4 11.2 89 0.9 CALM 0 0 0 0 1018.0 1018.0 0.0
23/03:00am 13.0 13.4 11.1 88 1.0 CALM 0 0 0 0 1018.1 1018.1 0.0
23/02:30am 13.4 13.8 11.3 87 1.1 CALM 0 0 0 0 1018.4 1018.4 0.0
23/02:00am 13.8 14.4 11.8 88 1.1 CALM 0 0 0 0 1018.7 1018.7 0.0
23/01:30am 13.7 14.1 11.4 86 1.2 CALM 0 0 0 0 1019.1 1019.1 0.0
23/01:00am 13.8 14.2 11.3 85 1.3 CALM 0 0 0 0 1019.4 1019.4 0.0
23/12:30am 14.4 14.8 11.2 81 1.7 CALM 0 0 0 0 1019.6 1019.6 0.0
23/12:00am 14.4 14.6 10.6 78 2.0 CALM 0 0 0 0 1020.0 1020.0 0.0
 
Date/Time
EDT
Tmp

°C
App
Tmp
°C
Dew
Point
°C
Rel
Hum
%
Delta-T

°C
Wind Press
QNH
hPa
Press
MSL
hPa
Rain
since
9 am
mm
Dir
 
Spd
km/h
Gust
km/h
Spd
kts
Gust
kts
22/11:30pm 15.9 16.4 11.7 76 2.3 CALM 0 0 0 0 1020.1 1020.1 0.0
22/11:00pm 15.6 15.9 11.0 74 2.4 CALM 0 0 0 0 1020.5 1020.5 0.0
22/10:30pm 16.6 17.0 11.1 70 3.0 CALM 0 0 0 0 1020.5 1020.5 0.0
22/10:00pm 17.9 18.0 11.5 66 3.5 N 2 6 1 3 1020.5 1020.5 0.0
22/09:30pm 18.1 17.1 11.0 63 3.8 N 7 11 4 6 1020.3 1020.3 0.0
22/09:00pm 18.3 17.2 10.7 61 4.1 NNE 7 15 4 8 1020.2 1020.2 0.0
22/08:30pm 18.5 16.7 10.8 61 4.2 NNE 11 19 6 10 1019.8 1019.8 0.0
22/08:00pm 18.7 16.4 10.5 59 4.4 NNE 13 24 7 13 1019.8 1019.8 0.0
22/07:30pm 19.2 16.6 10.7 58 4.6 NE 15 20 8 11 1019.7 1019.7 0.0
22/07:00pm 19.8 17.6 10.8 56 4.9 NE 13 22 7 12 1019.6 1019.6 0.0
22/06:30pm 20.7 18.1 10.8 53 5.4 NE 15 22 8 12 1019.5 1019.5 0.0
22/06:00pm 21.7 18.5 11.1 51 5.8 ENE 19 32 10 17 1019.5 1019.5 0.0
22/05:30pm 22.0 18.4 10.5 48 6.3 NE 20 30 11 16 1019.6 1019.6 0.0
22/05:00pm 22.0 17.9 10.2 47 6.4 ENE 22 32 12 17 1019.7 1019.7 0.0
22/04:30pm 23.0 19.1 10.8 46 6.8 ENE 22 33 12 18 1019.8 1019.8 0.0
22/04:00pm 22.6 18.6 10.4 46 6.7 ENE 22 32 12 17 1020.3 1020.3 0.0
22/03:30pm 22.9 18.1 10.3 45 6.9 ENE 26 32 14 17 1020.6 1020.6 0.0
22/03:00pm 24.0 21.3 10.3 42 7.5 ENE 15 24 8 13 1021.1 1021.1 0.0
22/02:30pm 23.2 20.8 8.5 39 7.8 N 11 20 6 11 1021.9 1021.9 0.0
22/02:00pm 22.7 19.7 7.7 38 7.8 NNE 13 20 7 11 1022.4 1022.4 0.0
22/01:30pm 21.8 18.3 8.7 43 6.9 N 17 28 9 15 1023.2 1023.2 0.0
22/01:00pm 21.8 18.0 7.6 40 7.3 NNE 17 28 9 15 1023.7 1023.7 0.0
22/12:30pm 21.3 18.0 8.2 43 6.8 NNE 15 22 8 12 1024.5 1024.5 0.0
22/12:00pm 20.6 16.6 8.3 45 6.4 N 19 28 10 15 1025.2 1025.2 0.0
22/11:30am 19.7 16.8 8.1 47 6.0 N 13 24 7 13 1025.8 1025.8 0.0
22/11:00am 20.7 17.3 9.3 48 6.0 NNW 17 28 9 15 1026.1 1026.1 0.0

Latest Capital City Observations: Canberra | Sydney | Melbourne | Brisbane | Adelaide | Perth | Hobart | Darwin

Other Formats:

Comma delimited format used in spreadsheet applications
http://www.bom.gov.au/fwo/IDN60901/IDN60901.94765.axf

JavaScript Object Notation format (JSON) in row-major order
http://www.bom.gov.au/fwo/IDN60901/IDN60901.94765.json